Aviation Digital Data Service (ADDS)

Output produced by METARs form (0643 UTC 30 March 2017)
found at http://aviationweather.gov/adds/metars/
 
KCLT 300540Z 3006/3106 12007KT P6SM SCT070 
     FM300900 11006KT P6SM BKN020 
     FM301200 10006KT P6SM OVC008 
     FM301600 10008KT P6SM VCSH OVC010 
     FM301900 08007KT P6SM -SHRA OVC015 
     FM310200 07007KT 4SM -SHRA BR OVC007